Airfield :
LOGIN :

Register | Disclaimer

   EN    FR    IT 

 










Legend :    VFR   Marginal VFR   IFR   Intensive IFR   Very Intensive IFR
Visi :
Ceiling :
>= 8 km
>= 3000ft
5 to 8 km
1000 to 3000 ft
1500m to 5 km
500 to 1000 ft
800 to 1500m
200 to 500 ft
< 800m
< 200 ft
Symbols :   Thunderstorms  Fog  Heavy snow  Heavy precipitations  Wind > 20 kt
SIGMETs :     Misc.  Thunderstorms  Icing  Turbulence  Mountain Waves  Volcanic Ashes






- Airport Elevation : 659 ft
- IATA code : LGG


EBLG - Liège

CURRENT METAR :
  • 070750Z VRB02KT CAVOK M02/M04 Q1025 NOSIG

EXPIRED METARs :
  • 070720Z 34002KT CAVOK M02/M04 Q1025 NOSIG
  • 070650Z VRB02KT CAVOK M02/M05 Q1025 NOSIG
  • 070620Z 13003KT CAVOK M03/M05 Q1025 NOSIG
  • 070550Z 14004KT 110V170 CAVOK M03/M05 Q1026 NOSIG

TAF COR TAF EBLG
Valid from the 07 at 06:00 until the 08 at 12:00 UTC


070520Z 0706/0812 03004KT CAVOK
PROB30
TEMPO 0804/0808 3000 BR MIFG



MET'MAP, your aeronautical weather chart ! - Copyright ORBIFLY December 2007 - Disclaimer

ORBIFLY MET'MAP TEAM :

Programming & Development : Alexandra Zaïnal
Concept & original design : Baudouin d'Aumeries
Assistance for programming : Marc-Olivier Méhu
Technical & hardware support : Manuel Goepfert

Contact : metmap@orbifly.com




SOURCES & CREDITS :

   NOAA